Time;durP1;ratioP1;P1;durP2;ratioP2;P2;SDS_P1;SDS_P2;PMS_P1;PMS_P2;Temp;Humidity;BMP_temperature;BMP_pressure;BME280_temperature;BME280_humidity;BME280_pressure;Samples;Min_cycle;Max_cycle;Signal;HPM_P1;HPM_P2
2023/09/04 00:02:05;;;;;;;2.25;1.50;;;;;;;15.32;100.00;101354.13;5034157;28;20039;-83
2023/09/04 00:04:31;;;;;;;5.03;1.58;;;;;;;15.33;100.00;101355.78;5027526;28;20370;-83
2023/09/04 00:06:57;;;;;;;2.85;1.40;;;;;;;15.35;100.00;101364.47;5022407;28;20381;-83
2023/09/04 00:09:23;;;;;;;6.03;1.55;;;;;;;15.33;100.00;101356.63;5011597;28;20068;-83
2023/09/04 00:11:48;;;;;;;2.13;1.60;;;;;;;15.30;100.00;101358.75;5020551;28;20040;-82
2023/09/04 00:14:16;;;;;;;3.28;1.80;;;;;;;15.30;100.00;101345.44;5047441;28;20032;-82
2023/09/04 00:16:42;;;;;;;6.75;2.33;;;;;;;15.28;100.00;101345.59;5046317;28;20052;-83
2023/09/04 00:19:08;;;;;;;7.95;3.10;;;;;;;15.29;100.00;101344.59;5033691;28;20036;-83
2023/09/04 00:21:34;;;;;;;8.32;1.65;;;;;;;15.28;100.00;101344.75;5043901;28;20083;-82
2023/09/04 00:24:00;;;;;;;2.28;1.58;;;;;;;15.24;100.00;101349.56;5042251;28;20084;-82
2023/09/04 00:26:26;;;;;;;3.50;2.03;;;;;;;15.16;100.00;101338.84;5017428;28;20033;-83
2023/09/04 00:28:51;;;;;;;6.28;1.75;;;;;;;15.04;100.00;101343.53;5050674;28;20029;-83
2023/09/04 00:31:17;;;;;;;5.15;1.80;;;;;;;14.93;100.00;101336.59;5035511;28;20037;-82
2023/09/04 00:33:43;;;;;;;4.18;1.20;;;;;;;14.74;100.00;101328.59;5059892;28;20027;-82
2023/09/04 00:36:08;;;;;;;2.92;1.10;;;;;;;14.61;100.00;101322.78;5056037;28;20101;-82
2023/09/04 00:38:34;;;;;;;2.70;0.90;;;;;;;14.57;100.00;101316.09;5053452;28;20428;-83
2023/09/04 00:41:00;;;;;;;5.50;1.25;;;;;;;14.54;100.00;101316.38;5054646;28;20062;-82
2023/09/04 00:43:37;;;;;;;2.17;0.98;;;;;;;14.55;100.00;101318.06;5043876;28;20075;-83
2023/09/04 00:46:03;;;;;;;2.20;1.10;;;;;;;14.51;100.00;101320.16;5082453;28;20040;-83
2023/09/04 00:48:31;;;;;;;2.95;1.25;;;;;;;14.49;100.00;101314.19;5069263;28;20052;-83
2023/09/04 00:50:58;;;;;;;3.00;0.85;;;;;;;14.46;100.00;101309.97;5064396;28;20032;-82
2023/09/04 00:53:26;;;;;;;2.92;1.13;;;;;;;14.41;100.00;101314.94;5033883;28;20047;-83
2023/09/04 00:55:51;;;;;;;1.58;1.02;;;;;;;14.37;100.00;101316.19;5061747;28;20027;-82
2023/09/04 00:58:17;;;;;;;6.85;1.60;;;;;;;14.34;100.00;101317.34;5048350;28;20086;-82
2023/09/04 01:00:44;;;;;;;4.13;1.30;;;;;;;14.35;100.00;101307.53;5068473;28;20032;-82
2023/09/04 01:03:12;;;;;;;1.52;1.20;;;;;;;14.37;100.00;101310.88;5033154;28;20039;-82
2023/09/04 01:05:38;;;;;;;2.65;1.20;;;;;;;14.34;100.00;101300.53;5062449;28;20044;-82
2023/09/04 01:08:04;;;;;;;1.20;1.10;;;;;;;14.36;100.00;101310.06;5046075;28;20029;-82
2023/09/04 01:10:42;;;;;;;3.72;1.00;;;;;;;14.42;100.00;101303.28;5055750;28;20474;-82
2023/09/04 01:13:16;;;;;;;4.53;1.27;;;;;;;14.41;100.00;101298.97;5042505;28;20025;-82
2023/09/04 01:15:42;;;;;;;3.55;1.13;;;;;;;14.37;100.00;101289.59;5059831;28;20477;-82
2023/09/04 01:18:09;;;;;;;8.30;1.67;;;;;;;14.20;100.00;101285.91;5073399;28;20040;-83
2023/09/04 01:20:35;;;;;;;2.42;1.40;;;;;;;14.02;100.00;101284.88;5075214;28;20037;-82
2023/09/04 01:23:01;;;;;;;2.08;1.45;;;;;;;13.89;100.00;101290.50;5063567;28;20105;-82
2023/09/04 01:25:54;;;;;;;5.00;1.50;;;;;;;13.80;100.00;101290.53;5056167;28;20024;-82
2023/09/04 01:28:40;;;;;;;1.92;1.42;;;;;;;13.75;100.00;101286.50;5062790;28;20044;-82
2023/09/04 01:31:24;;;;;;;1.20;1.10;;;;;;;13.79;100.00;101291.53;5053956;28;20032;-82
2023/09/04 01:33:57;;;;;;;2.60;1.93;;;;;;;13.81;100.00;101295.72;5039221;28;20484;-82
2023/09/04 01:36:28;;;;;;;2.70;1.63;;;;;;;13.87;100.00;101300.44;5033965;28;20040;-82
2023/09/04 01:38:54;;;;;;;1.77;1.38;;;;;;;13.90;100.00;101296.66;5064545;28;20078;-82
2023/09/04 01:41:20;;;;;;;1.63;1.20;;;;;;;13.94;100.00;101292.72;5050967;28;20041;-82
2023/09/04 01:43:46;;;;;;;2.25;1.67;;;;;;;13.96;100.00;101281.94;5072185;28;20480;-82
2023/09/04 01:46:11;;;;;;;3.88;1.60;;;;;;;13.94;100.00;101276.78;5059620;28;20024;-82
2023/09/04 01:48:37;;;;;;;3.50;2.95;;;;;;;13.88;100.00;101272.91;5041346;28;20465;-82
2023/09/04 01:51:03;;;;;;;2.38;1.40;;;;;;;13.81;100.00;101285.06;5055788;28;20040;-82
2023/09/04 01:53:29;;;;;;;1.60;1.00;;;;;;;13.78;100.00;101282.72;5071589;28;20033;-82
2023/09/04 01:55:55;;;;;;;4.88;1.30;;;;;;;13.75;100.00;101262.59;5062933;28;20036;-82
2023/09/04 01:58:20;;;;;;;1.45;1.20;;;;;;;13.76;100.00;101258.94;5044388;28;20028;-82
2023/09/04 02:00:49;;;;;;;18.08;1.90;;;;;;;13.74;100.00;101247.63;5054062;28;20032;-81
2023/09/04 02:03:15;;;;;;;6.65;1.40;;;;;;;13.62;100.00;101246.13;5057876;28;20396;-82
2023/09/04 02:05:42;;;;;;;1.42;0.75;;;;;;;13.51;100.00;101233.84;5072547;28;20037;-82
2023/09/04 02:08:08;;;;;;;2.05;1.20;;;;;;;13.34;100.00;101241.56;5064643;28;20051;-82
2023/09/04 02:10:35;;;;;;;6.22;1.15;;;;;;;13.15;100.00;101239.78;5066624;28;20380;-82
2023/09/04 02:13:02;;;;;;;0.90;0.70;;;;;;;13.08;100.00;101236.84;5052060;28;20032;-82
2023/09/04 02:15:29;;;;;;;1.00;0.80;;;;;;;13.09;100.00;101219.94;5066675;28;20040;-82
2023/09/04 02:17:55;;;;;;;1.90;0.88;;;;;;;13.09;100.00;101229.72;5040472;28;20036;-82
2023/09/04 02:20:22;;;;;;;3.25;0.80;;;;;;;13.09;100.00;101235.03;5049924;28;20040;-83
2023/09/04 02:22:48;;;;;;;0.90;0.90;;;;;;;13.14;100.00;101238.09;5036171;28;20044;-82
2023/09/04 02:25:14;;;;;;;1.20;0.82;;;;;;;13.19;100.00;101241.16;5049568;28;20401;-82
2023/09/04 02:27:39;;;;;;;2.95;1.00;;;;;;;13.22;100.00;101248.03;5072025;28;20492;-82
2023/09/04 02:30:08;;;;;;;6.55;0.98;;;;;;;13.26;100.00;101250.25;5066736;28;20115;-82
2023/09/04 02:32:34;;;;;;;5.13;1.10;;;;;;;13.26;100.00;101241.44;5052851;28;20040;-82
2023/09/04 02:35:00;;;;;;;1.35;0.90;;;;;;;13.25;100.00;101247.75;5040188;28;20040;-82
2023/09/04 02:37:27;;;;;;;2.72;1.10;;;;;;;13.24;100.00;101262.81;5057180;28;20507;-82
2023/09/04 02:39:53;;;;;;;1.70;0.70;;;;;;;13.24;100.00;101254.84;5075005;28;20063;-82
2023/09/04 02:42:19;;;;;;;0.57;0.50;;;;;;;13.23;100.00;101250.53;5055724;28;20542;-82
2023/09/04 02:44:45;;;;;;;1.35;0.68;;;;;;;13.25;100.00;101263.66;5059549;28;20033;-82
2023/09/04 02:47:11;;;;;;;1.67;0.60;;;;;;;13.20;100.00;101258.78;5070875;28;20089;-82
2023/09/04 02:49:36;;;;;;;0.68;0.65;;;;;;;13.21;100.00;101259.59;5044165;28;20024;-82
2023/09/04 02:52:02;;;;;;;2.05;0.40;;;;;;;13.18;100.00;101267.84;5058668;28;20090;-82
2023/09/04 02:54:28;;;;;;;0.95;0.50;;;;;;;13.11;100.00;101267.56;5028744;28;20435;-81
2023/09/04 02:56:54;;;;;;;1.05;0.60;;;;;;;13.01;100.00;101260.44;5082947;28;20039;-82
2023/09/04 02:59:19;;;;;;;1.15;0.60;;;;;;;12.99;100.00;101250.97;5047664;28;20032;-82
2023/09/04 03:01:49;;;;;;;0.70;0.52;;;;;;;12.96;100.00;101238.81;5066251;28;20032;-82
2023/09/04 03:04:16;;;;;;;0.90;0.70;;;;;;;12.80;100.00;101235.88;5059362;28;20028;-82
2023/09/04 03:06:42;;;;;;;2.25;0.70;;;;;;;12.61;100.00;101224.28;5060572;28;20041;-82
2023/09/04 03:09:08;;;;;;;1.05;0.65;;;;;;;12.50;100.00;101225.25;5059875;28;20039;-82
2023/09/04 03:11:33;;;;;;;6.25;1.02;;;;;;;12.39;100.00;101221.75;5055394;28;20078;-82
2023/09/04 03:14:00;;;;;;;2.92;0.68;;;;;;;12.30;100.00;101222.56;5058201;28;20542;-82
2023/09/04 03:16:27;;;;;;;2.95;0.50;;;;;;;12.33;100.00;101224.94;5033206;28;20215;-82
2023/09/04 03:18:52;;;;;;;1.50;0.50;;;;;;;12.37;100.00;101223.72;5078747;28;20118;-82
2023/09/04 03:21:18;;;;;;;1.17;0.50;;;;;;;12.39;100.00;101229.69;5073081;28;20067;-82
2023/09/04 03:23:46;;;;;;;1.50;0.50;;;;;;;12.43;100.00;101240.88;5072106;28;20066;-82
2023/09/04 03:26:11;;;;;;;2.97;0.85;;;;;;;12.44;100.00;101236.41;5053383;28;20028;-82
2023/09/04 03:28:37;;;;;;;1.98;0.75;;;;;;;12.47;100.00;101233.50;5050627;28;20044;-81
2023/09/04 03:31:03;;;;;;;2.22;0.82;;;;;;;12.46;100.00;101234.44;5023189;28;20128;-82
2023/09/04 03:33:29;;;;;;;1.23;0.75;;;;;;;12.46;100.00;101237.09;5072914;28;20031;-82
2023/09/04 03:35:58;;;;;;;0.88;0.60;;;;;;;12.52;100.00;101229.44;5056287;28;20044;-82
2023/09/04 03:38:24;;;;;;;1.48;0.68;;;;;;;12.57;100.00;101226.38;5043670;28;20075;-82
2023/09/04 03:40:49;;;;;;;0.80;0.70;;;;;;;12.62;100.00;101224.16;5047893;28;20052;-82
2023/09/04 03:43:15;;;;;;;1.10;0.80;;;;;;;12.57;100.00;101199.00;5085505;28;20048;-82
2023/09/04 03:45:41;;;;;;;1.00;0.75;;;;;;;12.58;100.00;101206.00;5051743;28;20033;-82
2023/09/04 03:48:07;;;;;;;0.93;0.70;;;;;;;12.51;100.00;101208.38;5044376;28;20032;-82
2023/09/04 03:50:35;;;;;;;1.88;0.90;;;;;;;12.47;100.00;101204.31;5043801;28;20064;-82
2023/09/04 03:53:02;;;;;;;1.17;0.60;;;;;;;12.43;100.00;101194.94;5067446;28;20032;-82
2023/09/04 03:55:29;;;;;;;0.50;0.50;;;;;;;12.36;100.00;101198.16;5052212;28;20036;-82
2023/09/04 03:57:55;;;;;;;1.10;0.90;;;;;;;12.34;100.00;101200.09;5039451;28;20028;-82
2023/09/04 04:00:22;;;;;;;1.20;0.50;;;;;;;12.27;100.00;101185.72;5037876;28;20451;-82
2023/09/04 04:02:48;;;;;;;1.80;0.80;;;;;;;12.19;100.00;101190.88;5047138;28;20534;-82
2023/09/04 04:05:16;;;;;;;1.25;0.68;;;;;;;12.19;100.00;101193.53;5074775;28;20033;-81
2023/09/04 04:07:44;;;;;;;2.88;0.82;;;;;;;12.18;100.00;101189.22;5032218;28;20127;-82
2023/09/04 04:10:11;;;;;;;3.17;0.70;;;;;;;12.19;100.00;101182.91;5036768;28;20029;-82
2023/09/04 04:12:37;;;;;;;1.73;0.80;;;;;;;12.25;100.00;101174.41;5054912;28;20107;-82
2023/09/04 04:15:07;;;;;;;6.80;0.75;;;;;;;12.15;100.00;101161.19;5083452;28;20620;-82
2023/09/04 04:17:34;;;;;;;0.82;0.60;;;;;;;12.03;100.00;101165.72;5046934;28;20445;-82
2023/09/04 04:20:00;;;;;;;0.60;0.38;;;;;;;11.98;100.00;101162.63;5051860;28;20108;-82
2023/09/04 04:22:26;;;;;;;0.40;0.30;;;;;;;11.98;100.00;101162.63;5073771;28;20096;-82
2023/09/04 04:24:52;;;;;;;3.55;0.40;;;;;;;11.97;100.00;101163.59;5080681;28;20040;-82
2023/09/04 04:27:18;;;;;;;0.60;0.60;;;;;;;11.95;100.00;101150.50;5058270;28;20051;-82
2023/09/04 04:29:45;;;;;;;2.63;0.60;;;;;;;11.95;100.00;101153.16;5063794;28;20607;-82
2023/09/04 04:32:11;;;;;;;3.05;0.50;;;;;;;11.91;100.00;101149.09;5037659;28;20115;-82
2023/09/04 04:34:40;;;;;;;0.82;0.40;;;;;;;11.89;100.00;101145.75;5054547;28;20044;-82
2023/09/04 04:37:08;;;;;;;1.38;0.73;;;;;;;11.82;100.00;101156.03;5043246;28;20041;-81
2023/09/04 04:39:34;;;;;;;1.52;0.70;;;;;;;11.82;100.00;101163.97;5032155;28;20036;-81
2023/09/04 04:42:00;;;;;;;1.77;0.60;;;;;;;11.86;100.00;101146.88;5055651;28;20033;-82
2023/09/04 04:44:27;;;;;;;3.65;1.10;;;;;;;11.86;100.00;101151.31;5068277;28;20032;-82
2023/09/04 04:46:53;;;;;;;2.53;0.82;;;;;;;11.87;100.00;101148.53;5054419;28;20040;-82
2023/09/04 04:49:21;;;;;;;3.15;0.80;;;;;;;11.92;100.00;101156.06;5076804;28;20039;-82
2023/09/04 04:51:49;;;;;;;1.35;0.70;;;;;;;11.97;100.00;101158.31;5057986;28;20110;-82
2023/09/04 04:54:16;;;;;;;1.38;1.05;;;;;;;12.02;100.00;101151.63;5044660;28;20032;-82
2023/09/04 04:56:42;;;;;;;1.48;0.80;;;;;;;12.06;100.00;101159.28;5067188;28;20567;-81
2023/09/04 04:59:08;;;;;;;4.63;0.95;;;;;;;12.08;100.00;101163.53;5072562;28;20119;-82
2023/09/04 05:01:34;;;;;;;1.38;0.60;;;;;;;12.02;100.00;101154.25;5046836;28;20027;-82
2023/09/04 05:04:01;;;;;;;1.70;0.60;;;;;;;11.98;100.00;101158.16;5070520;28;20032;-82
2023/09/04 05:06:27;;;;;;;1.00;0.50;;;;;;;11.97;100.00;101171.56;5060373;28;20032;-82
2023/09/04 05:08:53;;;;;;;2.42;0.40;;;;;;;11.94;100.00;101170.03;5082978;28;20028;-81
2023/09/04 05:11:19;;;;;;;0.82;0.57;;;;;;;11.89;100.00;101175.72;5060477;28;20043;-82
2023/09/04 05:13:45;;;;;;;3.53;0.70;;;;;;;11.77;100.00;101180.28;5037323;28;20469;-82
2023/09/04 05:16:12;;;;;;;2.65;0.70;;;;;;;11.66;100.00;101185.66;5057455;28;20481;-82
2023/09/04 05:18:38;;;;;;;0.60;0.60;;;;;;;11.62;100.00;101182.47;5033808;28;20064;-81
2023/09/04 05:21:06;;;;;;;1.02;0.70;;;;;;;11.56;100.00;101167.09;5032894;28;20055;-82
2023/09/04 05:23:32;;;;;;;3.92;0.70;;;;;;;11.46;100.00;101171.50;5065414;28;20028;-82
2023/09/04 05:25:59;;;;;;;0.90;0.60;;;;;;;11.37;100.00;101175.78;5087716;28;20111;-82
2023/09/04 05:28:25;;;;;;;1.67;0.55;;;;;;;11.32;100.00;101183.28;5064959;28;20046;-82
2023/09/04 05:30:50;;;;;;;1.65;0.60;;;;;;;11.30;100.00;101186.06;5066226;28;20969;-82
2023/09/04 05:33:16;;;;;;;1.02;0.40;;;;;;;11.33;100.00;101182.31;5068019;28;20028;-82
2023/09/04 05:35:42;;;;;;;7.40;0.70;;;;;;;11.38;100.00;101182.75;5079945;28;20801;-81
2023/09/04 05:38:09;;;;;;;1.70;0.60;;;;;;;11.40;100.00;101186.94;5055889;28;20090;-81
2023/09/04 05:40:34;;;;;;;2.30;0.93;;;;;;;11.46;100.00;101197.97;5077431;28;20053;-80
2023/09/04 05:43:00;;;;;;;1.60;0.68;;;;;;;11.47;100.00;101197.00;5051799;28;20028;-81
2023/09/04 05:45:27;;;;;;;3.67;1.30;;;;;;;11.44;100.00;101194.63;5043295;28;20063;-82
2023/09/04 05:47:52;;;;;;;1.88;0.63;;;;;;;11.45;100.00;101189.19;5070028;28;20499;-82
2023/09/04 05:50:18;;;;;;;4.07;0.75;;;;;;;11.49;100.00;101184.47;5071203;28;20115;-82
2023/09/04 05:52:44;;;;;;;7.60;0.55;;;;;;;11.52;100.00;101187.72;5069390;28;20385;-82
2023/09/04 05:55:10;;;;;;;3.95;1.15;;;;;;;11.53;100.00;101184.06;5076525;28;20028;-81
2023/09/04 05:57:36;;;;;;;0.98;0.50;;;;;;;11.54;100.00;101184.94;5056098;28;20094;-81
2023/09/04 06:00:06;;;;;;;0.70;0.60;;;;;;;11.58;100.00;101182.88;5082142;28;20039;-81
2023/09/04 06:02:39;;;;;;;2.85;0.70;;;;;;;11.59;100.00;101171.28;5069401;28;20082;-81
2023/09/04 06:05:05;;;;;;;2.75;0.70;;;;;;;11.58;100.00;101172.28;5069444;28;20032;-81
2023/09/04 06:07:32;;;;;;;5.57;0.80;;;;;;;11.61;100.00;101166.72;5065517;28;20041;-81
2023/09/04 06:09:57;;;;;;;1.92;0.73;;;;;;;11.60;100.00;101167.66;5067688;28;20102;-81
2023/09/04 06:12:23;;;;;;;2.10;0.73;;;;;;;11.54;100.00;101155.81;5071918;28;20044;-82
2023/09/04 06:14:49;;;;;;;2.55;0.77;;;;;;;11.47;100.00;101155.50;5070655;28;20024;-81
2023/09/04 06:17:15;;;;;;;4.32;0.70;;;;;;;11.45;100.00;101148.66;5071497;28;20036;-82
2023/09/04 06:19:41;;;;;;;4.97;1.70;;;;;;;11.47;100.00;101144.91;5046141;28;20430;-81
2023/09/04 06:22:06;;;;;;;3.28;0.73;;;;;;;11.45;100.00;101138.88;5068009;28;20028;-81
2023/09/04 06:24:32;;;;;;;3.75;1.10;;;;;;;11.36;100.00;101137.03;5066111;28;20040;-82
2023/09/04 06:26:58;;;;;;;2.80;1.10;;;;;;;11.20;100.00;101119.84;5072971;28;20032;-81
2023/09/04 06:29:23;;;;;;;6.53;1.08;;;;;;;10.98;100.00;101112.91;5066498;28;20043;-81
2023/09/04 06:31:49;;;;;;;2.20;1.25;;;;;;;10.83;100.00;101107.13;5051674;28;20063;-82
2023/09/04 06:34:15;;;;;;;5.68;2.28;;;;;;;10.82;100.00;101105.41;5061983;28;20067;-82
2023/09/04 06:36:41;;;;;;;3.53;1.42;;;;;;;10.86;100.00;101099.75;5033123;28;20127;-82
2023/09/04 06:39:06;;;;;;;3.22;2.10;;;;;;;10.94;100.00;101108.84;5066748;28;20058;-81
2023/09/04 06:41:32;;;;;;;7.10;2.03;;;;;;;11.01;100.00;101099.41;5058506;28;20044;-82
2023/09/04 06:43:58;;;;;;;2.85;1.60;;;;;;;11.07;100.00;101106.81;5063818;28;20028;-81
2023/09/04 06:46:25;;;;;;;4.32;1.30;;;;;;;11.24;100.00;101107.19;5054422;28;20078;-82
2023/09/04 06:48:51;;;;;;;4.20;1.60;;;;;;;11.37;100.00;101115.72;5084554;28;20036;-82
2023/09/04 06:51:16;;;;;;;4.25;1.60;;;;;;;11.51;100.00;101125.16;5063209;28;20025;-82
2023/09/04 06:53:45;;;;;;;3.15;1.35;;;;;;;11.70;100.00;101133.28;5070258;28;20389;-82
2023/09/04 06:56:11;;;;;;;3.03;1.50;;;;;;;11.85;100.00;101134.56;5067100;28;20079;-82
2023/09/04 06:58:36;;;;;;;3.30;1.40;;;;;;;12.00;100.00;101140.34;5056590;28;20471;-82
2023/09/04 07:01:03;;;;;;;2.45;1.42;;;;;;;12.18;100.00;101138.84;5074308;28;20469;-81
2023/09/04 07:03:29;;;;;;;4.72;1.50;;;;;;;12.32;100.00;101141.09;5045620;28;20539;-82
2023/09/04 07:05:55;;;;;;;2.40;1.70;;;;;;;12.46;100.00;101131.03;5066663;28;20170;-82
2023/09/04 07:08:21;;;;;;;1.65;1.38;;;;;;;12.61;100.00;101134.13;5053624;28;20063;-82
2023/09/04 07:10:48;;;;;;;5.32;1.75;;;;;;;12.72;100.00;101127.81;5052426;28;20117;-82
2023/09/04 07:13:15;;;;;;;7.57;1.83;;;;;;;12.76;100.00;101116.78;5074022;28;20028;-82
2023/09/04 07:15:41;;;;;;;3.15;2.17;;;;;;;12.68;100.00;101091.97;5047774;28;20028;-81
2023/09/04 07:18:08;;;;;;;3.90;1.60;;;;;;;12.60;100.00;101093.50;5068788;28;20083;-81
2023/09/04 07:20:33;;;;;;;3.30;2.25;;;;;;;12.54;100.00;101099.38;5080654;28;20032;-80
2023/09/04 07:22:59;;;;;;;4.65;1.75;;;;;;;12.55;100.00;101108.16;5068123;28;20469;-81
2023/09/04 07:25:25;;;;;;;2.55;1.88;;;;;;;12.69;100.00;101107.75;5050935;28;20033;-81
2023/09/04 07:27:51;;;;;;;4.35;1.85;;;;;;;12.82;100.00;101103.94;5050318;28;20032;-81
2023/09/04 07:30:17;;;;;;;4.47;1.67;;;;;;;13.00;100.00;101114.63;5049187;28;20035;-81
2023/09/04 07:32:43;;;;;;;2.67;1.83;;;;;;;13.19;100.00;101111.09;5068933;28;20068;-81
2023/09/04 07:35:09;;;;;;;6.32;2.40;;;;;;;13.38;100.00;101106.69;5066538;28;20043;-81
2023/09/04 07:37:35;;;;;;;2.83;2.00;;;;;;;13.49;100.00;101093.22;5056207;28;20123;-81
2023/09/04 07:40:03;;;;;;;2.30;2.10;;;;;;;13.60;100.00;101092.22;5037335;28;20158;-81
2023/09/04 07:42:29;;;;;;;6.25;3.00;;;;;;;13.72;100.00;101102.63;5070471;28;20114;-81
2023/09/04 07:44:55;;;;;;;5.78;3.08;;;;;;;13.91;100.00;101114.13;5057140;28;20512;-82
2023/09/04 07:47:21;;;;;;;4.28;3.47;;;;;;;14.06;100.00;101109.13;5060479;28;20029;-81
2023/09/04 07:49:47;;;;;;;6.55;2.63;;;;;;;14.21;100.00;101107.63;5031605;28;20052;-81
2023/09/04 07:52:12;;;;;;;6.32;2.67;;;;;;;14.33;100.00;101102.06;5025709;28;20048;-81
2023/09/04 07:54:38;;;;;;;4.00;2.33;;;;;;;14.41;100.00;101099.50;5032735;28;20374;-81
2023/09/04 07:57:05;;;;;;;4.45;2.40;;;;;;;14.49;100.00;101090.75;4993442;28;20033;-81
2023/09/04 07:59:31;;;;;;;2.78;2.33;;;;;;;14.57;100.00;101100.59;5037104;28;20037;-81
2023/09/04 08:01:57;;;;;;;5.53;3.05;;;;;;;14.61;100.00;101096.63;5012669;28;20040;-81
2023/09/04 08:04:22;;;;;;;4.10;2.10;;;;;;;14.69;100.00;101102.03;5025851;28;20064;-81
2023/09/04 08:06:48;;;;;;;3.20;2.35;;;;;;;14.86;100.00;101097.66;5034232;28;20138;-82
2023/09/04 08:09:15;;;;;;;8.20;3.15;;;;;;;15.03;100.00;101094.28;5031140;28;20060;-81
2023/09/04 08:11:41;;;;;;;4.82;2.60;;;;;;;15.10;100.00;101090.81;5017027;28;21555;-82
2023/09/04 08:14:06;;;;;;;5.75;2.47;;;;;;;15.22;100.00;101099.38;5030240;28;20030;-81
2023/09/04 08:16:32;;;;;;;4.38;3.50;;;;;;;15.35;100.00;101104.25;5046976;28;20060;-81
2023/09/04 08:18:58;;;;;;;3.67;3.05;;;;;;;15.54;100.00;101104.16;5035204;28;20378;-81
2023/09/04 08:21:24;;;;;;;7.53;3.55;;;;;;;15.62;100.00;101102.34;5052017;28;20036;-81
2023/09/04 08:23:49;;;;;;;3.30;2.92;;;;;;;15.73;100.00;101092.41;5019548;28;20138;-81
2023/09/04 08:26:15;;;;;;;3.78;2.38;;;;;;;15.88;100.00;101101.44;5013738;28;20052;-82
2023/09/04 08:28:42;;;;;;;4.38;2.35;;;;;;;15.98;100.00;101098.66;5001649;28;20580;-81
2023/09/04 08:31:08;;;;;;;2.50;2.30;;;;;;;16.06;100.00;101089.84;5018706;28;20551;-81
2023/09/04 08:33:34;;;;;;;2.17;1.98;;;;;;;16.20;100.00;101099.00;5036439;28;20112;-82
2023/09/04 08:36:00;;;;;;;10.18;2.72;;;;;;;16.33;100.00;101095.00;5036176;28;20071;-82
2023/09/04 08:38:26;;;;;;;3.72;2.67;;;;;;;16.44;100.00;101091.16;5071543;28;20040;-82
2023/09/04 08:40:56;;;;;;;3.08;2.53;;;;;;;16.55;100.00;101088.16;5058269;28;20047;-82
2023/09/04 08:43:24;;;;;;;4.50;2.55;;;;;;;16.64;100.00;101096.16;5053109;28;20029;-82
2023/09/04 08:45:51;;;;;;;4.45;2.65;;;;;;;16.68;100.00;101084.16;5053663;28;20378;-82
2023/09/04 08:48:20;;;;;;;4.78;2.63;;;;;;;16.76;100.00;101084.13;5070872;28;20051;-82
2023/09/04 08:50:48;;;;;;;3.78;2.78;;;;;;;16.84;100.00;101077.94;5062346;28;20685;-82
2023/09/04 08:53:15;;;;;;;3.40;2.45;;;;;;;16.96;100.00;101073.91;5066307;28;20036;-82
2023/09/04 08:55:41;;;;;;;3.30;2.67;;;;;;;17.13;100.00;101062.38;5058966;28;20079;-82
2023/09/04 08:58:08;;;;;;;2.60;2.40;;;;;;;17.27;100.00;101079.50;5035157;28;20044;-82
2023/09/04 09:00:35;;;;;;;5.00;2.70;;;;;;;17.38;100.00;101070.28;5064033;28;20036;-81
2023/09/04 09:03:02;;;;;;;5.88;2.38;;;;;;;17.45;100.00;101073.94;5048579;28;20043;-82
2023/09/04 09:05:30;;;;;;;3.85;2.78;;;;;;;17.60;100.00;101064.16;5054326;28;20150;-82
2023/09/04 09:07:56;;;;;;;5.93;2.85;;;;;;;17.68;100.00;101065.09;5071048;28;20152;-82
2023/09/04 09:10:22;;;;;;;3.38;2.90;;;;;;;17.80;100.00;101061.03;5037405;28;20114;-82
2023/09/04 09:12:48;;;;;;;3.53;2.60;;;;;;;17.89;100.00;101063.63;5073420;28;20037;-81
2023/09/04 09:15:15;;;;;;;5.03;2.97;;;;;;;18.03;100.00;101065.53;5045152;28;20538;-81
2023/09/04 09:17:56;;;;;;;7.97;3.33;;;;;;;18.16;100.00;101056.13;5063753;28;20396;-81
2023/09/04 09:20:36;;;;;;;3.40;3.10;;;;;;;18.28;100.00;101045.81;4976339;28;20043;-81
2023/09/04 09:23:05;;;;;;;3.67;3.35;;;;;;;18.34;100.00;101047.78;5069799;28;20024;-81
2023/09/04 09:25:31;;;;;;;6.03;3.45;;;;;;;18.41;100.00;101042.53;5053246;28;20487;-81
2023/09/04 09:28:02;;;;;;;3.25;2.95;;;;;;;18.53;100.00;101042.91;5041583;28;20135;-82
2023/09/04 09:30:31;;;;;;;4.40;3.40;;;;;;;18.62;100.00;101041.00;5067118;28;20071;-81
2023/09/04 09:32:58;;;;;;;8.88;3.60;;;;;;;18.71;100.00;101037.22;5021539;28;20032;-81
2023/09/04 09:35:23;;;;;;;4.40;3.92;;;;;;;18.81;100.00;101039.59;5062793;28;20048;-81
2023/09/04 09:37:53;;;;;;;4.13;3.60;;;;;;;18.95;100.00;101032.59;5065743;28;20029;-81
2023/09/04 09:40:20;;;;;;;4.85;3.30;;;;;;;19.01;100.00;101022.97;5044849;28;20036;-81
2023/09/04 09:42:46;;;;;;;4.25;3.67;;;;;;;19.08;100.00;101019.38;5073330;28;20032;-81
2023/09/04 09:45:12;;;;;;;3.65;3.17;;;;;;;19.14;100.00;101015.16;5051950;28;20079;-81
2023/09/04 09:47:38;;;;;;;4.35;3.72;;;;;;;19.23;100.00;101005.16;5083780;28;20031;-81
2023/09/04 09:50:05;;;;;;;6.90;3.28;;;;;;;19.34;100.00;101006.50;5060663;28;20028;-81
2023/09/04 09:52:30;;;;;;;4.03;2.97;;;;;;;19.39;100.00;101000.56;5066724;28;20066;-81
2023/09/04 09:54:56;;;;;;;7.18;3.10;;;;;;;19.47;100.00;101003.13;5074546;28;20074;-80
2023/09/04 09:57:26;;;;;;;6.35;3.88;;;;;;;19.63;100.00;100995.88;5051412;28;20121;-80
2023/09/04 09:59:52;;;;;;;4.43;3.30;;;;;;;19.71;100.00;100999.28;5051618;28;20033;-81
2023/09/04 10:02:22;;;;;;;5.07;3.40;;;;;;;19.84;100.00;100987.81;5085386;28;20043;-81
2023/09/04 10:04:49;;;;;;;6.18;3.53;;;;;;;19.89;100.00;100983.72;5069524;28;20044;-80
2023/09/04 10:07:25;;;;;;;4.13;3.72;;;;;;;20.01;100.00;100981.34;5054896;28;20480;-81
2023/09/04 10:10:05;;;;;;;3.63;3.33;;;;;;;20.07;100.00;100975.22;5022037;28;20040;-80
2023/09/04 10:13:10;;;;;;;4.90;3.58;;;;;;;20.24;100.00;100975.78;5072241;28;20686;-81
2023/09/04 10:15:38;;;;;;;5.47;3.28;;;;;;;20.38;100.00;100979.38;5000689;28;20034;-81
2023/09/04 10:18:12;;;;;;;5.22;3.20;;;;;;;20.49;100.00;100969.09;5030722;28;20037;-81
2023/09/04 10:20:41;;;;;;;8.70;2.78;;;;;;;20.63;100.00;100976.22;5051334;28;20385;-81
2023/09/04 10:23:09;;;;;;;4.45;3.42;;;;;;;20.74;100.00;100966.75;5073224;28;20033;-81
2023/09/04 10:25:58;;;;;;;3.85;3.38;;;;;;;20.87;100.00;100968.69;5029309;28;20036;-81
2023/09/04 10:28:31;;;;;;;4.55;3.33;;;;;;;21.09;100.00;100971.25;5060814;28;20045;-81
2023/09/04 10:31:00;;;;;;;4.70;3.47;;;;;;;21.21;100.00;100958.06;5065220;28;20102;-81
2023/09/04 10:33:26;;;;;;;4.03;3.00;;;;;;;21.27;100.00;100965.34;5069129;28;20616;-81
2023/09/04 10:35:54;;;;;;;3.55;3.00;;;;;;;21.34;100.00;100965.34;5082859;28;20044;-81
2023/09/04 10:38:21;;;;;;;3.38;3.08;;;;;;;21.48;100.00;100963.50;5069940;28;20539;-80
2023/09/04 10:40:48;;;;;;;4.40;2.90;;;;;;;21.54;100.00;100951.94;5042814;28;20139;-81
2023/09/04 10:43:14;;;;;;;4.80;3.53;;;;;;;21.61;100.00;100951.09;5051327;28;20032;-81
2023/09/04 10:45:40;;;;;;;4.72;2.65;;;;;;;21.62;100.00;100945.53;5062357;28;20040;-82
2023/09/04 10:48:06;;;;;;;6.70;3.00;;;;;;;21.71;100.00;100948.81;5068783;28;20103;-81
2023/09/04 10:50:38;;;;;;;6.15;2.70;;;;;;;21.82;100.00;100944.72;5058669;28;20032;-81
2023/09/04 10:53:06;;;;;;;2.85;2.58;;;;;;;21.91;100.00;100948.88;5027158;28;20707;-81
2023/09/04 10:55:33;;;;;;;5.25;2.78;;;;;;;22.01;100.00;100945.75;5066542;28;20056;-81
2023/09/04 10:58:04;;;;;;;4.20;2.50;;;;;;;22.07;100.00;100941.41;5071597;28;20032;-81
2023/09/04 11:00:33;;;;;;;3.15;2.85;;;;;;;22.11;100.00;100937.25;5068799;28;20098;-81
2023/09/04 11:03:13;;;;;;;3.22;2.45;;;;;;;22.14;100.00;100944.91;5052744;28;20040;-81
2023/09/04 11:06:04;;;;;;;2.78;2.47;;;;;;;22.20;100.00;100942.41;5047423;28;20029;-81
2023/09/04 11:08:49;;;;;;;2.75;2.35;;;;;;;22.21;100.00;100949.44;5041740;28;20032;-81
2023/09/04 11:11:20;;;;;;;4.03;2.15;;;;;;;22.29;100.00;100957.31;5056483;28;20047;-81
2023/09/04 11:13:54;;;;;;;4.35;2.35;;;;;;;22.30;100.00;100953.56;5071663;28;20028;-81
2023/09/04 11:16:19;;;;;;;4.68;2.42;;;;;;;22.35;100.00;100951.06;5075058;28;20091;-81
2023/09/04 11:18:46;;;;;;;5.45;2.08;;;;;;;22.47;100.00;100948.56;5073717;28;20072;-81